createdAt,value
2024-04-16T00:00:00.554Z,90.59
2024-04-16T00:01:00.603Z,90.35
2024-04-16T00:02:00.727Z,88.53
2024-04-16T00:03:00.480Z,90.19
2024-04-16T00:04:00.506Z,90.70
2024-04-16T00:05:00.575Z,91.11
2024-04-16T00:06:00.387Z,90.49
2024-04-16T00:07:00.454Z,91.17
2024-04-16T00:08:00.383Z,90.25
2024-04-16T00:09:00.378Z,88.95
2024-04-16T00:10:00.517Z,88.02
2024-04-16T00:11:00.436Z,89.67
2024-04-16T00:12:00.343Z,89.77
2024-04-16T00:13:00.423Z,88.08
2024-04-16T00:14:00.321Z,88.95
2024-04-16T00:15:00.305Z,90.04
2024-04-16T00:16:00.401Z,89.11
2024-04-16T00:17:00.374Z,89.22
2024-04-16T00:18:00.316Z,87.71
2024-04-16T00:19:00.349Z,88.43
2024-04-16T00:20:00.269Z,87.29
2024-04-16T00:21:00.308Z,87.92
2024-04-16T00:22:00.341Z,88.22
2024-04-16T00:23:00.225Z,89.67
2024-04-16T00:24:00.221Z,87.92
2024-04-16T00:25:00.364Z,87.50
2024-04-16T00:26:00.186Z,89.56
2024-04-16T00:27:00.194Z,89.56
2024-04-16T00:28:00.244Z,90.39
2024-04-16T00:29:00.161Z,90.45
2024-04-16T00:30:00.291Z,88.18
2024-04-16T00:31:00.197Z,86.63
2024-04-16T00:32:00.227Z,86.63
2024-04-16T00:33:00.148Z,87.56
2024-04-16T00:34:00.155Z,88.70
2024-04-16T00:35:00.141Z,88.08
2024-04-16T00:36:00.088Z,84.78
2024-04-16T00:37:00.146Z,85.60
2024-04-16T00:38:00.107Z,87.35
2024-04-16T00:39:00.051Z,86.74
2024-04-16T00:40:00.052Z,86.53
2024-04-16T00:41:00.113Z,86.57
2024-04-16T00:42:00.024Z,86.88
2024-04-16T00:43:00.082Z,85.95
2024-04-16T00:43:59.992Z,86.84
2024-04-16T00:44:59.988Z,86.16
2024-04-16T00:46:00.145Z,86.84
2024-04-16T00:47:00.027Z,86.84
2024-04-16T00:48:00.091Z,86.53
2024-04-16T00:49:00.079Z,86.74
2024-04-16T00:49:59.956Z,87.35
2024-04-16T00:50:59.949Z,87.15
2024-04-16T00:52:00.064Z,85.71
2024-04-16T00:52:59.995Z,87.05
2024-04-16T00:53:59.962Z,88.70
2024-04-16T00:54:59.949Z,86.94
2024-04-16T00:55:59.863Z,85.39
2024-04-16T00:56:59.860Z,86.53
2024-04-16T00:57:59.885Z,87.77
2024-04-16T00:58:59.873Z,86.63
2024-04-16T00:59:59.846Z,86.12
2024-04-16T01:00:59.885Z,86.63
2024-04-16T01:01:59.792Z,86.43
2024-04-16T01:02:59.845Z,86.53
2024-04-16T01:03:59.828Z,87.35
2024-04-16T01:04:59.883Z,85.71
2024-04-16T01:05:59.746Z,87.56
2024-04-16T01:06:59.785Z,86.12
2024-04-16T01:07:59.735Z,86.12
2024-04-16T01:08:59.743Z,84.78
2024-04-16T01:09:59.722Z,84.78
2024-04-16T01:10:59.764Z,86.02
2024-04-16T01:11:59.736Z,86.32
2024-04-16T01:12:59.747Z,85.60
2024-04-16T01:13:59.664Z,84.67
2024-04-16T01:14:59.655Z,84.67
2024-04-16T01:15:59.627Z,85.71
2024-04-16T01:16:59.641Z,85.60
2024-04-16T01:17:59.710Z,85.91
2024-04-16T01:18:59.626Z,84.57
2024-04-16T01:19:59.592Z,83.95
2024-04-16T01:20:59.624Z,84.67
2024-04-16T01:21:59.620Z,83.44
2024-04-16T01:22:59.595Z,84.99
2024-04-16T01:23:59.562Z,84.57
2024-04-16T01:24:59.637Z,83.54
2024-04-16T01:25:59.533Z,84.67
2024-04-16T01:26:59.535Z,84.06
2024-04-16T01:27:59.592Z,83.85
2024-04-16T01:28:59.568Z,83.95
2024-04-16T01:29:59.513Z,83.33
2024-04-16T01:30:59.571Z,82.82
2024-04-16T01:31:59.501Z,81.79
2024-04-16T01:32:59.553Z,81.31
2024-04-16T01:33:59.449Z,82.65
2024-04-16T01:34:59.431Z,83.06
2024-04-16T01:35:59.463Z,81.51
2024-04-16T01:36:59.427Z,82.96
2024-04-16T01:37:59.410Z,84.16
2024-04-16T01:38:59.449Z,82.75
2024-04-16T01:39:59.409Z,83.37
2024-04-16T01:40:59.421Z,83.27
2024-04-16T01:41:59.411Z,82.65
2024-04-16T01:42:59.376Z,83.23
2024-04-16T01:43:59.339Z,82.55
2024-04-16T01:44:59.331Z,82.20
2024-04-16T01:45:59.347Z,82.51
2024-04-16T01:46:59.320Z,82.30
2024-04-16T01:47:59.402Z,80.65
2024-04-16T01:49:02.190Z,80.79
2024-04-16T01:49:59.267Z,82.24
2024-04-16T01:50:59.290Z,81.21
2024-04-16T01:51:59.288Z,82.03
2024-04-16T01:52:59.266Z,82.82
2024-04-16T01:53:59.234Z,81.10
2024-04-16T01:54:59.299Z,83.03
2024-04-16T01:55:59.240Z,83.44
2024-04-16T01:56:59.222Z,83.85
2024-04-16T01:57:59.264Z,82.10
2024-04-16T01:58:59.199Z,81.51
2024-04-16T01:59:59.192Z,82.40
2024-04-16T02:00:59.374Z,82.14
2024-04-16T02:01:59.170Z,81.00
2024-04-16T02:02:59.144Z,82.24
2024-04-16T02:03:59.226Z,79.97
2024-04-16T02:04:59.157Z,81.00
2024-04-16T02:05:59.474Z,81.72
2024-04-16T02:06:59.147Z,83.27
2024-04-16T02:07:59.101Z,82.24
2024-04-16T02:08:59.090Z,81.93
2024-04-16T02:09:59.106Z,81.37
2024-04-16T02:10:59.270Z,81.21
2024-04-16T02:11:59.097Z,80.28
2024-04-16T02:12:59.061Z,81.41
2024-04-16T02:13:59.031Z,81.21
2024-04-16T02:14:59.011Z,81.31
2024-04-16T02:15:59.022Z,81.62
2024-04-16T02:16:58.997Z,81.82
2024-04-16T02:17:59.045Z,81.62
2024-04-16T02:18:59.005Z,81.62
2024-04-16T02:19:58.969Z,81.31
2024-04-16T02:20:58.949Z,81.51
2024-04-16T02:22:02.680Z,80.48
2024-04-16T02:22:58.978Z,79.86
2024-04-16T02:23:58.922Z,80.07
2024-04-16T02:24:58.949Z,80.48
2024-04-16T02:25:58.899Z,81.10
2024-04-16T02:26:58.870Z,81.41
2024-04-16T02:27:58.897Z,80.83
2024-04-16T02:28:58.887Z,81.56
2024-04-16T02:29:58.857Z,81.24
2024-04-16T02:30:58.947Z,80.83
2024-04-16T02:31:58.905Z,81.24
2024-04-16T02:32:58.953Z,81.56
2024-04-16T02:33:58.987Z,81.35
2024-04-16T02:34:58.790Z,81.76
2024-04-16T02:35:58.804Z,80.73
2024-04-16T02:36:58.807Z,80.73
2024-04-16T02:37:58.784Z,81.76
2024-04-16T02:38:58.789Z,81.56
2024-04-16T02:39:58.927Z,79.80
2024-04-16T02:40:58.724Z,80.69
2024-04-16T02:41:58.759Z,80.58
2024-04-16T02:42:58.727Z,80.28
2024-04-16T02:43:58.715Z,79.86
2024-04-16T02:44:58.688Z,79.76
2024-04-16T02:45:58.676Z,80.52
2024-04-16T02:46:58.704Z,81.24
2024-04-16T02:47:58.840Z,81.14
2024-04-16T02:48:58.656Z,80.00
2024-04-16T02:49:58.637Z,79.80
2024-04-16T02:50:58.651Z,80.62
2024-04-16T02:51:58.627Z,79.80
2024-04-16T02:52:58.619Z,79.08
2024-04-16T02:53:58.586Z,79.69
2024-04-16T02:54:58.577Z,80.56
2024-04-16T02:55:58.602Z,80.97
2024-04-16T02:56:58.554Z,80.15
2024-04-16T02:57:58.546Z,80.97
2024-04-16T02:58:58.542Z,81.49
2024-04-16T02:59:58.526Z,81.35
2024-04-16T03:00:58.619Z,81.14
2024-04-16T03:01:58.559Z,80.73
2024-04-16T03:02:58.557Z,80.04
2024-04-16T03:03:58.489Z,79.52
2024-04-16T03:04:58.496Z,80.46
2024-04-16T03:05:58.511Z,80.04
2024-04-16T03:06:58.457Z,81.18
2024-04-16T03:07:58.443Z,79.83
2024-04-16T03:08:58.450Z,79.83
2024-04-16T03:09:58.435Z,80.35
2024-04-16T03:10:58.413Z,79.83
2024-04-16T03:11:58.410Z,80.56
2024-04-16T03:12:58.385Z,80.25
2024-04-16T03:13:58.390Z,80.35
2024-04-16T03:14:58.401Z,79.22
2024-04-16T03:15:58.359Z,80.15
2024-04-16T03:16:58.395Z,79.94
2024-04-16T03:17:58.414Z,79.56
2024-04-16T03:18:58.330Z,79.15
2024-04-16T03:19:58.317Z,80.49
2024-04-16T03:20:58.341Z,79.56
2024-04-16T03:21:58.290Z,79.66
2024-04-16T03:22:58.282Z,79.66
2024-04-16T03:23:58.287Z,80.18
2024-04-16T03:24:58.272Z,80.60
2024-04-16T03:25:58.263Z,80.90
2024-04-16T03:26:58.230Z,80.80
2024-04-16T03:27:58.241Z,80.70
2024-04-16T03:28:58.231Z,80.90
2024-04-16T03:29:58.232Z,79.87
2024-04-16T03:30:58.207Z,81.52
2024-04-16T03:31:58.198Z,80.70
2024-04-16T03:32:58.313Z,80.29
2024-04-16T03:33:58.170Z,80.39
2024-04-16T03:34:58.147Z,81.73
2024-04-16T03:35:58.174Z,80.80
2024-04-16T03:36:58.130Z,81.42
2024-04-16T03:37:58.135Z,81.42
2024-04-16T03:38:58.140Z,81.32
2024-04-16T03:39:58.104Z,80.32
2024-04-16T03:40:58.095Z,80.74
2024-04-16T03:41:58.118Z,81.35
2024-04-16T03:42:58.077Z,82.08
2024-04-16T03:43:58.050Z,82.18
2024-04-16T03:44:58.057Z,81.05
2024-04-16T03:45:58.056Z,81.25
2024-04-16T03:46:58.080Z,81.35
2024-04-16T03:47:58.128Z,81.46
2024-04-16T03:48:57.994Z,81.46
2024-04-16T03:49:57.996Z,81.87
2024-04-16T03:50:58.011Z,81.56
2024-04-16T03:51:57.997Z,82.90
2024-04-16T03:52:57.964Z,81.67
2024-04-16T03:53:57.967Z,82.39
2024-04-16T03:54:57.939Z,82.70
2024-04-16T03:55:57.943Z,82.08
2024-04-16T03:56:57.956Z,82.39
2024-04-16T03:57:57.907Z,81.84
2024-04-16T03:58:57.893Z,82.97
2024-04-16T03:59:57.932Z,82.45
2024-04-16T04:00:57.960Z,81.73
2024-04-16T04:01:57.867Z,82.15
2024-04-16T04:02:57.905Z,81.11
2024-04-16T04:03:57.907Z,81.77
2024-04-16T04:04:57.855Z,82.50
2024-04-16T04:05:57.857Z,82.50
2024-04-16T04:06:57.812Z,83.01
2024-04-16T04:07:57.816Z,82.08
2024-04-16T04:08:57.796Z,81.84
2024-04-16T04:09:57.813Z,82.60
2024-04-16T04:10:57.863Z,81.25
2024-04-16T04:11:57.755Z,81.46
2024-04-16T04:12:57.745Z,81.67
2024-04-16T04:13:57.772Z,82.80
2024-04-16T04:14:57.758Z,83.01
2024-04-16T04:15:57.722Z,83.84
2024-04-16T04:16:57.737Z,82.90
2024-04-16T04:17:57.746Z,82.29
2024-04-16T04:18:57.683Z,82.29
2024-04-16T04:19:57.717Z,81.77
2024-04-16T04:20:57.659Z,82.50
2024-04-16T04:21:57.656Z,81.25
2024-04-16T04:22:57.666Z,81.77
2024-04-16T04:23:57.639Z,82.08
2024-04-16T04:24:57.626Z,82.80
2024-04-16T04:25:57.639Z,82.70
2024-04-16T04:26:57.597Z,82.90
2024-04-16T04:27:57.585Z,82.50
2024-04-16T04:28:57.609Z,82.60
2024-04-16T04:29:57.571Z,82.39
2024-04-16T04:30:57.563Z,81.98
2024-04-16T04:31:57.630Z,82.60
2024-04-16T04:32:57.581Z,83.11
2024-04-16T04:33:57.536Z,82.50
2024-04-16T04:34:57.548Z,82.90
2024-04-16T04:35:57.508Z,82.29
2024-04-16T04:36:57.486Z,83.07
2024-04-16T04:37:57.518Z,82.76
2024-04-16T04:38:57.472Z,81.73
2024-04-16T04:39:57.461Z,81.94
2024-04-16T04:40:57.471Z,81.94
2024-04-16T04:41:57.432Z,81.94
2024-04-16T04:42:57.438Z,82.15
2024-04-16T04:43:57.462Z,81.73
2024-04-16T04:44:57.413Z,81.84
2024-04-16T04:45:57.396Z,82.66
2024-04-16T04:46:57.447Z,82.15
2024-04-16T04:47:57.525Z,82.35
2024-04-16T04:48:57.420Z,82.25
2024-04-16T04:49:57.400Z,82.66
2024-04-16T04:50:57.339Z,82.35
2024-04-16T04:51:57.375Z,81.94
2024-04-16T04:52:57.318Z,82.04
2024-04-16T04:53:57.321Z,81.94
2024-04-16T04:54:57.301Z,82.73
2024-04-16T04:55:57.288Z,83.04
2024-04-16T04:56:57.302Z,81.59
2024-04-16T04:57:57.280Z,82.62
2024-04-16T04:58:57.259Z,81.59
2024-04-16T04:59:57.252Z,80.93
2024-04-16T05:00:57.264Z,82.17
2024-04-16T05:01:57.331Z,81.04
2024-04-16T05:02:57.240Z,80.62
2024-04-16T05:03:57.348Z,80.42
2024-04-16T05:04:57.263Z,80.32
2024-04-16T05:05:57.244Z,81.04
2024-04-16T05:06:57.172Z,81.45
2024-04-16T05:07:57.162Z,80.52
2024-04-16T05:08:57.179Z,80.79
2024-04-16T05:09:57.147Z,81.10
2024-04-16T05:10:57.289Z,80.07
2024-04-16T05:11:57.224Z,79.86
2024-04-16T05:12:57.132Z,79.45
2024-04-16T05:13:57.105Z,80.69
2024-04-16T05:14:57.100Z,81.62
2024-04-16T05:15:57.116Z,82.96
2024-04-16T05:16:57.060Z,82.17
2024-04-16T05:17:57.126Z,83.41
2024-04-16T05:18:57.087Z,84.34
2024-04-16T05:19:57.045Z,84.75
2024-04-16T05:20:57.028Z,85.62
2024-04-16T05:21:57.018Z,85.31
2024-04-16T05:22:56.996Z,86.44
2024-04-16T05:23:56.996Z,86.96
2024-04-16T05:24:57.005Z,86.38
2024-04-16T05:25:56.966Z,88.45
2024-04-16T05:26:56.948Z,88.86
2024-04-16T05:27:56.959Z,89.28
2024-04-16T05:28:56.943Z,89.07
2024-04-16T05:29:56.938Z,89.89
2024-04-16T05:30:56.934Z,90.16
2024-04-16T05:31:56.971Z,89.44
2024-04-16T05:32:56.984Z,88.14
2024-04-16T05:33:57.511Z,90.31
2024-04-16T05:34:56.872Z,89.86
2024-04-16T05:36:02.284Z,89.34
2024-04-16T05:36:56.850Z,89.44
2024-04-16T05:37:56.854Z,89.54
2024-04-16T05:38:56.865Z,90.47
2024-04-16T05:39:56.858Z,89.65
2024-04-16T05:40:56.799Z,88.41
2024-04-16T05:41:56.821Z,89.03
2024-04-16T05:42:56.822Z,88.20
2024-04-16T05:43:56.774Z,88.71
2024-04-16T05:44:56.804Z,89.09
2024-04-16T05:45:56.769Z,89.09
2024-04-16T05:46:56.737Z,90.02
2024-04-16T05:47:56.966Z,88.78
2024-04-16T05:48:56.732Z,88.98
2024-04-16T05:49:56.725Z,88.78
2024-04-16T05:50:56.719Z,89.71
2024-04-16T05:51:56.719Z,90.28
2024-04-16T05:52:56.683Z,90.08
2024-04-16T05:53:56.706Z,89.29
2024-04-16T05:54:56.653Z,89.61
2024-04-16T05:55:56.649Z,88.43
2024-04-16T05:56:56.646Z,88.74
2024-04-16T05:57:56.647Z,88.74
2024-04-16T05:58:56.626Z,87.71
2024-04-16T05:59:56.627Z,88.53
2024-04-16T06:00:56.647Z,88.08
2024-04-16T06:01:56.765Z,87.77
2024-04-16T06:02:56.592Z,86.32
2024-04-16T06:03:56.643Z,86.32
2024-04-16T06:04:56.627Z,86.84
2024-04-16T06:05:58.744Z,88.18
2024-04-16T06:06:56.561Z,89.36
2024-04-16T06:07:56.586Z,89.67
2024-04-16T06:08:56.520Z,89.98
2024-04-16T06:09:56.501Z,89.67
2024-04-16T06:10:56.496Z,90.08
2024-04-16T06:11:56.562Z,90.70
2024-04-16T06:12:56.500Z,91.32
2024-04-16T06:13:56.498Z,91.52
2024-04-16T06:14:56.478Z,90.28
2024-04-16T06:15:56.480Z,90.43
2024-04-16T06:16:56.527Z,91.26
2024-04-16T06:17:56.460Z,90.84
2024-04-16T06:18:56.431Z,91.67
2024-04-16T06:19:56.381Z,91.16
2024-04-16T06:20:56.390Z,90.74
2024-04-16T06:21:56.399Z,92.19
2024-04-16T06:22:56.672Z,92.08
2024-04-16T06:23:56.375Z,92.70
2024-04-16T06:24:56.359Z,92.91
2024-04-16T06:25:56.336Z,91.05
2024-04-16T06:26:56.353Z,91.67
2024-04-16T06:27:56.335Z,90.99
2024-04-16T06:28:56.294Z,91.88
2024-04-16T06:29:56.310Z,91.26
2024-04-16T06:30:56.288Z,92.60
2024-04-16T06:31:56.317Z,92.08
2024-04-16T06:32:56.321Z,92.50
2024-04-16T06:33:56.237Z,92.91
2024-04-16T06:34:56.265Z,93.22
2024-04-16T06:35:56.231Z,93.53
2024-04-16T06:36:56.198Z,91.36
2024-04-16T06:37:56.187Z,90.22
2024-04-16T06:38:56.223Z,90.95
2024-04-16T06:39:56.188Z,90.12
2024-04-16T06:40:56.180Z,90.74
2024-04-16T06:41:56.146Z,90.12
2024-04-16T06:42:56.226Z,91.36
2024-04-16T06:43:56.138Z,91.05
2024-04-16T06:44:56.122Z,90.95
2024-04-16T06:45:56.119Z,90.33
2024-04-16T06:46:56.117Z,90.64
2024-04-16T06:47:56.202Z,92.19
2024-04-16T06:49:04.501Z,90.12
2024-04-16T06:49:56.138Z,90.80
2024-04-16T06:50:56.056Z,90.08
2024-04-16T06:51:56.072Z,91.52
2024-04-16T06:52:56.071Z,89.56
2024-04-16T06:53:56.020Z,90.39
2024-04-16T06:54:56.018Z,90.28
2024-04-16T06:55:56.141Z,91.32
2024-04-16T06:56:56.012Z,90.70
2024-04-16T06:57:55.982Z,90.49
2024-04-16T06:58:56.002Z,90.19
2024-04-16T06:59:55.978Z,92.25
2024-04-16T07:00:55.981Z,91.94
2024-04-16T07:01:55.951Z,92.04
2024-04-16T07:02:55.970Z,91.73
2024-04-16T07:03:55.988Z,90.59
2024-04-16T07:04:55.906Z,92.86
2024-04-16T07:05:55.911Z,93.18
2024-04-16T07:06:58.687Z,94.00
2024-04-16T07:07:55.894Z,94.42
2024-04-16T07:08:55.868Z,93.18
2024-04-16T07:09:55.876Z,91.83
2024-04-16T07:10:55.874Z,92.14
2024-04-16T07:11:55.875Z,91.88
2024-04-16T07:12:55.842Z,91.73
2024-04-16T07:13:55.832Z,92.46
2024-04-16T07:14:55.819Z,92.08
2024-04-16T07:15:55.837Z,93.53
2024-04-16T07:16:55.781Z,92.60
2024-04-16T07:17:55.885Z,93.53
2024-04-16T07:18:55.769Z,92.91
2024-04-16T07:19:55.759Z,93.79
2024-04-16T07:20:55.755Z,94.10
2024-04-16T07:21:55.750Z,92.66
2024-04-16T07:22:55.722Z,93.38
2024-04-16T07:23:55.703Z,93.18
2024-04-16T07:24:55.709Z,94.42
2024-04-16T07:25:55.717Z,92.35
2024-04-16T07:26:55.668Z,93.38
2024-04-16T07:27:55.651Z,92.35
2024-04-16T07:28:55.663Z,92.97
2024-04-16T07:29:55.652Z,93.59
2024-04-16T07:31:05.632Z,93.90
2024-04-16T07:31:55.752Z,93.65
2024-04-16T07:32:55.689Z,92.31
2024-04-16T07:33:55.662Z,93.79
2024-04-16T07:34:57.822Z,93.49
2024-04-16T07:35:55.588Z,94.00
2024-04-16T07:36:55.566Z,94.00
2024-04-16T07:37:55.556Z,95.14
2024-04-16T07:38:55.565Z,95.96
2024-04-16T07:39:55.529Z,96.37
2024-04-16T07:40:55.531Z,96.17
2024-04-16T07:41:55.518Z,95.14
2024-04-16T07:42:55.524Z,94.31
2024-04-16T07:43:55.543Z,94.82
2024-04-16T07:44:55.479Z,95.45
2024-04-16T07:45:55.464Z,95.76
2024-04-16T07:46:55.593Z,96.69
2024-04-16T07:47:55.550Z,96.48
2024-04-16T07:48:56.457Z,95.55
2024-04-16T07:49:55.432Z,95.34
2024-04-16T07:50:55.434Z,95.96
2024-04-16T07:51:55.414Z,93.69
2024-04-16T07:52:55.417Z,94.31
2024-04-16T07:53:55.380Z,94.10
2024-04-16T07:54:55.393Z,94.62
2024-04-16T07:55:55.353Z,94.62
2024-04-16T07:56:55.348Z,94.82
2024-04-16T07:57:55.358Z,94.62
2024-04-16T07:58:55.366Z,93.38
2024-04-16T07:59:55.317Z,92.86
2024-04-16T08:00:55.397Z,92.86
2024-04-16T08:01:55.337Z,93.07
2024-04-16T08:02:55.325Z,94.10
2024-04-16T08:03:55.285Z,94.93
2024-04-16T08:04:55.414Z,94.99
2024-04-16T08:05:55.245Z,94.37
2024-04-16T08:06:55.261Z,93.54
2024-04-16T08:07:55.226Z,94.57
2024-04-16T08:08:55.220Z,94.89
2024-04-16T08:09:55.203Z,94.06
2024-04-16T08:10:55.273Z,92.93
2024-04-16T08:11:55.203Z,92.82
2024-04-16T08:12:55.190Z,93.54
2024-04-16T08:13:55.168Z,93.65
2024-04-16T08:14:55.182Z,94.23
2024-04-16T08:15:55.167Z,94.02
2024-04-16T08:16:55.280Z,93.60
2024-04-16T08:17:55.137Z,91.28
2024-04-16T08:18:55.128Z,92.72
2024-04-16T08:19:55.132Z,93.24
2024-04-16T08:20:55.144Z,93.13
2024-04-16T08:21:58.491Z,93.44
2024-04-16T08:22:55.130Z,93.30
2024-04-16T08:23:55.080Z,92.10
2024-04-16T08:24:55.068Z,92.31
2024-04-16T08:25:55.056Z,92.61
2024-04-16T08:26:55.040Z,92.82
2024-04-16T08:27:55.033Z,93.24
2024-04-16T08:28:55.026Z,91.58
2024-04-16T08:29:55.025Z,93.24
2024-04-16T08:30:55.040Z,92.00
2024-04-16T08:31:54.984Z,93.96
2024-04-16T08:32:55.001Z,93.96
2024-04-16T08:33:55.095Z,92.61
2024-04-16T08:34:55.086Z,94.10
2024-04-16T08:35:55.030Z,94.17
2024-04-16T08:36:54.930Z,94.93
2024-04-16T08:37:54.984Z,96.02
2024-04-16T08:38:55.029Z,94.47
2024-04-16T08:39:54.911Z,94.17
2024-04-16T08:40:54.884Z,94.89
2024-04-16T08:41:54.868Z,95.14
2024-04-16T08:42:54.879Z,95.55
2024-04-16T08:43:54.922Z,94.62
2024-04-16T08:44:54.908Z,95.71
2024-04-16T08:45:54.833Z,95.55
2024-04-16T08:46:54.856Z,95.86
2024-04-16T08:47:54.850Z,95.14
2024-04-16T08:48:54.813Z,94.52
2024-04-16T08:49:54.845Z,94.00
2024-04-16T08:50:54.767Z,93.94
2024-04-16T08:51:54.765Z,94.77
2024-04-16T08:52:54.760Z,95.28
2024-04-16T08:53:54.750Z,95.70
2024-04-16T08:54:54.731Z,96.58
2024-04-16T08:55:55.239Z,95.65
2024-04-16T08:56:54.709Z,95.34
2024-04-16T08:57:54.713Z,96.48
2024-04-16T08:58:54.734Z,96.89
2024-04-16T08:59:54.682Z,96.06
2024-04-16T09:00:54.749Z,95.96
2024-04-16T09:01:54.736Z,95.24
2024-04-16T09:02:54.671Z,95.40
2024-04-16T09:03:54.667Z,94.99
2024-04-16T09:04:54.690Z,95.40
2024-04-16T09:05:54.722Z,95.61
2024-04-16T09:06:54.620Z,94.99
2024-04-16T09:07:54.613Z,95.09
2024-04-16T09:09:05.774Z,96.08
2024-04-16T09:09:54.571Z,96.18
2024-04-16T09:10:54.722Z,95.67
2024-04-16T09:11:54.723Z,95.56
2024-04-16T09:12:54.553Z,94.70
2024-04-16T09:13:54.535Z,93.60
2024-04-16T09:14:54.508Z,94.28
2024-04-16T09:15:54.514Z,94.23
2024-04-16T09:16:54.544Z,95.00
2024-04-16T09:17:56.914Z,93.46
2024-04-16T09:18:54.500Z,91.91
2024-04-16T09:19:54.464Z,92.53
2024-04-16T09:20:54.478Z,93.46
2024-04-16T09:21:54.466Z,94.55
2024-04-16T09:22:54.459Z,94.55
2024-04-16T09:23:54.417Z,93.06
2024-04-16T09:24:54.416Z,93.58
2024-04-16T09:25:54.431Z,93.48
2024-04-16T09:26:54.399Z,94.05
2024-04-16T09:27:54.382Z,94.77
2024-04-16T09:28:54.392Z,94.73
2024-04-16T09:29:54.379Z,93.24
2024-04-16T09:30:54.351Z,91.49
2024-04-16T09:31:54.352Z,91.91
2024-04-16T09:32:54.390Z,91.55
2024-04-16T09:33:54.434Z,91.00
2024-04-16T09:34:54.328Z,90.18
2024-04-16T09:35:54.290Z,88.33
2024-04-16T09:36:54.283Z,87.24
2024-04-16T09:37:54.292Z,86.83
2024-04-16T09:38:54.254Z,89.81
2024-04-16T09:39:54.266Z,88.78
2024-04-16T09:40:54.240Z,87.04
2024-04-16T09:41:54.233Z,88.27
2024-04-16T09:42:54.220Z,88.37
2024-04-16T09:43:54.190Z,88.27
2024-04-16T09:44:54.200Z,88.82
2024-04-16T09:45:54.185Z,89.70
2024-04-16T09:46:55.653Z,89.75
2024-04-16T09:47:54.264Z,90.78
2024-04-16T09:48:54.175Z,89.85
2024-04-16T09:50:07.203Z,88.68
2024-04-16T09:50:56.300Z,87.85
2024-04-16T09:51:54.114Z,88.57
2024-04-16T09:52:54.136Z,87.85
2024-04-16T09:53:54.116Z,86.00
2024-04-16T09:54:54.091Z,86.72
2024-04-16T09:55:54.091Z,86.27
2024-04-16T09:56:54.080Z,87.20
2024-04-16T09:57:54.043Z,86.27
2024-04-16T09:58:54.197Z,84.32
2024-04-16T09:59:54.017Z,84.28
2024-04-16T10:00:54.048Z,83.46
2024-04-16T10:01:54.069Z,82.33
2024-04-16T10:02:54.134Z,81.92
2024-04-16T10:03:54.008Z,82.64
2024-04-16T10:04:54.008Z,84.69
2024-04-16T10:05:53.956Z,84.59
2024-04-16T10:06:53.956Z,83.36
2024-04-16T10:07:53.977Z,78.43
2024-04-16T10:08:53.942Z,79.80
2024-04-16T10:09:53.926Z,80.49
2024-04-16T10:10:54.053Z,79.05
2024-04-16T10:11:53.948Z,80.69
2024-04-16T10:12:53.917Z,78.85
2024-04-16T10:13:53.891Z,79.97
2024-04-16T10:14:53.864Z,78.94
2024-04-16T10:15:53.843Z,81.68
2024-04-16T10:16:53.923Z,79.63
2024-04-16T10:17:53.999Z,79.59
2024-04-16T10:18:53.817Z,76.34
2024-04-16T10:19:53.829Z,79.11
2024-04-16T10:20:53.812Z,79.80
2024-04-16T10:21:53.799Z,80.92
2024-04-16T10:22:53.819Z,79.49
2024-04-16T10:23:53.787Z,77.50
2024-04-16T10:24:53.771Z,78.22
2024-04-16T10:25:53.811Z,78.39
2024-04-16T10:26:53.746Z,76.61
2024-04-16T10:27:53.756Z,75.38
2024-04-16T10:28:53.723Z,73.91
2024-04-16T10:29:53.705Z,73.81
2024-04-16T10:30:53.762Z,75.45
2024-04-16T10:31:53.747Z,74.60
2024-04-16T10:32:53.713Z,72.65
2024-04-16T10:33:53.683Z,76.03
2024-04-16T10:34:53.647Z,75.27
2024-04-16T10:35:53.653Z,73.98
2024-04-16T10:36:53.647Z,73.57
2024-04-16T10:37:53.618Z,70.71
2024-04-16T10:38:53.603Z,71.66
2024-04-16T10:39:53.592Z,71.04
2024-04-16T10:40:53.632Z,72.38
2024-04-16T10:41:53.615Z,75.04
2024-04-16T10:42:53.566Z,72.86
2024-04-16T10:43:53.578Z,72.75
2024-04-16T10:44:53.552Z,71.73
2024-04-16T10:45:53.573Z,71.15
2024-04-16T10:46:53.736Z,70.57
2024-04-16T10:47:53.594Z,68.73
2024-04-16T10:48:53.568Z,67.08
2024-04-16T10:49:53.528Z,69.13
2024-04-16T10:50:53.478Z,68.01
2024-04-16T10:51:53.460Z,71.39
2024-04-16T10:52:53.532Z,69.95
2024-04-16T10:53:53.442Z,70.23
2024-04-16T10:54:54.254Z,69.89
2024-04-16T10:55:53.475Z,71.73
2024-04-16T10:56:53.419Z,65.87
2024-04-16T10:57:53.393Z,68.29
2024-04-16T10:58:53.419Z,70.75
2024-04-16T11:00:01.596Z,64.81
2024-04-16T11:00:53.432Z,65.33
2024-04-16T11:01:53.414Z,64.78
2024-04-16T11:02:53.386Z,67.65
2024-04-16T11:03:53.412Z,63.25
2024-04-16T11:04:53.362Z,67.13
2024-04-16T11:05:53.307Z,64.37
2024-04-16T11:06:55.227Z,63.04
2024-04-16T11:07:53.303Z,64.37
2024-04-16T11:08:53.291Z,62.77
2024-04-16T11:09:53.291Z,65.43
2024-04-16T11:10:53.452Z,62.26
2024-04-16T11:11:53.252Z,62.29
2024-04-16T11:12:53.897Z,63.41
2024-04-16T11:13:53.238Z,64.43
2024-04-16T11:14:53.235Z,61.50
2024-04-16T11:15:53.250Z,62.35
2024-04-16T11:16:53.200Z,63.88
2024-04-16T11:17:53.294Z,63.50
2024-04-16T11:18:54.069Z,63.91
2024-04-16T11:19:53.170Z,69.78
2024-04-16T11:20:53.169Z,67.76
2024-04-16T11:21:53.168Z,70.15
2024-04-16T11:22:53.169Z,73.74
2024-04-16T11:23:53.120Z,69.57
2024-04-16T11:24:55.404Z,72.24
2024-04-16T11:25:53.094Z,72.14
2024-04-16T11:26:53.109Z,75.83
2024-04-16T11:27:53.098Z,77.68
2024-04-16T11:28:53.084Z,76.65
2024-04-16T11:29:53.072Z,72.44
2024-04-16T11:30:53.040Z,76.31
2024-04-16T11:31:53.066Z,77.44
2024-04-16T11:32:53.092Z,77.81
2024-04-16T11:33:53.136Z,73.40
2024-04-16T11:34:53.201Z,73.36
2024-04-16T11:35:53.002Z,70.29
2024-04-16T11:36:52.985Z,74.08
2024-04-16T11:37:53.088Z,72.86
2024-04-16T11:38:53.048Z,72.41
2024-04-16T11:39:52.942Z,70.06
2024-04-16T11:41:01.104Z,71.86
2024-04-16T11:41:52.917Z,73.06
2024-04-16T11:42:52.906Z,71.94
2024-04-16T11:43:52.957Z,70.88
2024-04-16T11:44:52.890Z,67.40
2024-04-16T11:45:52.899Z,68.12
2024-04-16T11:46:52.943Z,69.24
2024-04-16T11:47:52.942Z,68.73
2024-04-16T11:48:52.843Z,66.96
2024-04-16T11:49:52.848Z,65.84
2024-04-16T11:50:52.848Z,67.47
2024-04-16T11:51:52.809Z,68.19
2024-04-16T11:52:52.880Z,67.75
2024-04-16T11:53:52.811Z,65.19
2024-04-16T11:54:52.789Z,68.36
2024-04-16T11:55:52.767Z,66.11
2024-04-16T11:56:52.786Z,65.77
2024-04-16T11:57:52.755Z,66.69
2024-04-16T11:58:52.798Z,63.73
2024-04-16T11:59:52.759Z,66.08
2024-04-16T12:00:52.730Z,60.87
2024-04-16T12:01:52.738Z,64.45
2024-04-16T12:02:52.724Z,66.08
2024-04-16T12:03:52.721Z,64.34
2024-04-16T12:04:52.765Z,66.36
2024-04-16T12:05:52.810Z,63.57
2024-04-16T12:06:52.636Z,60.13
2024-04-16T12:07:52.659Z,58.70
2024-04-16T12:08:52.675Z,61.22
2024-04-16T12:09:52.620Z,59.49
2024-04-16T12:10:52.706Z,58.26
2024-04-16T12:11:52.713Z,60.28
2024-04-16T12:12:52.608Z,59.56
2024-04-16T12:13:52.612Z,60.66
2024-04-16T12:14:52.726Z,61.68
2024-04-16T12:15:52.553Z,59.12
2024-04-16T12:16:52.647Z,60.38
2024-04-16T12:17:52.589Z,58.37
2024-04-16T12:18:52.536Z,59.11
2024-04-16T12:19:52.534Z,60.85
2024-04-16T12:20:52.829Z,62.07
2024-04-16T12:21:52.510Z,62.88
2024-04-16T12:22:52.482Z,62.99
2024-04-16T12:23:52.497Z,61.56
2024-04-16T12:24:52.469Z,59.00
2024-04-16T12:25:53.005Z,58.93
2024-04-16T12:26:52.438Z,59.85
2024-04-16T12:27:52.455Z,62.81
2024-04-16T12:28:52.400Z,61.51
2024-04-16T12:29:52.398Z,60.80
2024-04-16T12:30:52.402Z,61.21
2024-04-16T12:31:52.496Z,61.44
2024-04-16T12:33:01.147Z,61.13
2024-04-16T12:33:52.445Z,60.24
2024-04-16T12:34:52.418Z,63.62
2024-04-16T12:35:52.345Z,64.57
2024-04-16T12:36:52.337Z,62.21
2024-04-16T12:37:52.370Z,65.18
2024-04-16T12:38:52.418Z,66.41
2024-04-16T12:39:52.291Z,64.18
2024-04-16T12:40:52.318Z,65.83
2024-04-16T12:41:52.298Z,66.75
2024-04-16T12:42:52.251Z,68.79
2024-04-16T12:43:52.319Z,68.38
2024-04-16T12:44:52.244Z,68.90
2024-04-16T12:45:54.698Z,70.23
2024-04-16T12:46:52.253Z,70.84
2024-04-16T12:47:52.365Z,68.62
2024-04-16T12:48:52.188Z,68.41
2024-04-16T12:49:52.193Z,66.67
2024-04-16T12:50:52.194Z,69.89
2024-04-16T12:51:52.165Z,68.76